createdAt,value
2018-12-31T00:00:09.333Z,24.10
2018-12-31T00:01:09.248Z,23.40
2018-12-31T00:02:09.174Z,23.40
2018-12-31T00:03:09.103Z,23.00
2018-12-31T00:04:09.021Z,23.00
2018-12-31T00:05:08.945Z,21.90
2018-12-31T00:06:08.864Z,23.30
2018-12-31T00:07:08.782Z,22.80
2018-12-31T00:08:08.719Z,22.40
2018-12-31T00:09:08.638Z,21.70
2018-12-31T00:10:08.567Z,21.80
2018-12-31T00:11:08.515Z,22.00
2018-12-31T00:12:08.405Z,20.80
2018-12-31T00:13:08.333Z,21.60
2018-12-31T00:14:08.243Z,22.20
2018-12-31T00:15:08.179Z,22.10
2018-12-31T00:16:08.097Z,22.80
2018-12-31T00:17:08.018Z,22.50
2018-12-31T00:18:07.930Z,22.70
2018-12-31T00:19:07.908Z,22.80
2018-12-31T00:20:07.791Z,22.20
2018-12-31T00:21:07.709Z,22.90
2018-12-31T00:22:07.637Z,23.40
2018-12-31T00:23:07.551Z,23.10
2018-12-31T00:24:07.482Z,21.40
2018-12-31T00:25:07.407Z,22.60
2018-12-31T00:26:07.328Z,21.80
2018-12-31T00:27:07.252Z,22.30
2018-12-31T00:28:07.185Z,22.30
2018-12-31T00:29:07.092Z,21.70
2018-12-31T00:30:07.012Z,22.40
2018-12-31T00:31:06.940Z,22.40
2018-12-31T00:32:06.864Z,21.50
2018-12-31T00:33:06.803Z,21.00
2018-12-31T00:34:06.731Z,21.20
2018-12-31T00:35:06.635Z,21.80
2018-12-31T00:36:06.564Z,22.20
2018-12-31T00:37:06.481Z,21.60
2018-12-31T00:38:06.407Z,21.70
2018-12-31T00:39:06.343Z,22.40
2018-12-31T00:40:06.252Z,22.50
2018-12-31T00:41:06.172Z,22.40
2018-12-31T00:42:06.091Z,22.00
2018-12-31T00:43:06.019Z,21.60
2018-12-31T00:44:05.940Z,21.90
2018-12-31T00:45:05.864Z,21.90
2018-12-31T00:46:05.787Z,21.20
2018-12-31T00:47:05.712Z,21.20
2018-12-31T00:48:05.681Z,21.10
2018-12-31T00:49:05.550Z,20.30
2018-12-31T00:50:05.481Z,21.30
2018-12-31T00:51:05.402Z,20.60
2018-12-31T00:52:05.332Z,20.80
2018-12-31T00:53:05.249Z,20.60
2018-12-31T00:54:05.190Z,19.90
2018-12-31T00:55:05.095Z,20.10
2018-12-31T00:56:05.016Z,21.40
2018-12-31T00:57:04.940Z,20.10
2018-12-31T00:58:04.858Z,21.00
2018-12-31T00:59:04.776Z,20.10
2018-12-31T01:00:04.705Z,20.80
2018-12-31T01:01:04.635Z,21.50
2018-12-31T01:02:04.550Z,20.30
2018-12-31T01:03:04.467Z,20.00
2018-12-31T01:04:04.385Z,21.50
2018-12-31T01:05:04.307Z,20.40
2018-12-31T01:06:04.230Z,19.60
2018-12-31T01:07:04.167Z,18.90
2018-12-31T01:08:04.077Z,19.40
2018-12-31T01:09:04.003Z,19.40
2018-12-31T01:10:03.930Z,19.00
2018-12-31T01:11:03.846Z,19.40
2018-12-31T01:12:03.769Z,28.20
2018-12-31T01:13:03.697Z,45.50
2018-12-31T01:14:03.609Z,54.10
2018-12-31T01:15:03.531Z,61.50
2018-12-31T01:16:03.461Z,52.20
2018-12-31T01:17:03.377Z,47.90
2018-12-31T01:18:03.323Z,53.60
2018-12-31T01:19:03.222Z,71.00
2018-12-31T01:20:03.140Z,83.10
2018-12-31T01:21:03.073Z,105.10
2018-12-31T01:22:02.981Z,112.10
2018-12-31T01:23:02.930Z,122.90
2018-12-31T01:24:02.828Z,125.20
2018-12-31T01:25:02.748Z,125.40
2018-12-31T01:26:02.668Z,130.40
2018-12-31T01:27:02.592Z,130.40
2018-12-31T01:28:02.507Z,128.80
2018-12-31T01:29:02.439Z,125.50
2018-12-31T01:30:02.362Z,129.60
2018-12-31T01:31:02.287Z,127.50
2018-12-31T01:32:02.212Z,124.90
2018-12-31T01:33:02.129Z,129.10
2018-12-31T01:34:02.043Z,125.60
2018-12-31T01:35:01.968Z,130.00
2018-12-31T01:36:01.893Z,126.70
2018-12-31T01:37:01.801Z,127.80
2018-12-31T01:38:01.735Z,121.70
2018-12-31T01:39:01.657Z,125.00
2018-12-31T01:40:01.575Z,129.40
2018-12-31T01:41:01.506Z,131.30
2018-12-31T01:42:01.417Z,129.20
2018-12-31T01:43:01.347Z,134.50
2018-12-31T01:44:01.267Z,129.80
2018-12-31T01:45:01.243Z,141.00
2018-12-31T01:46:01.108Z,129.90
2018-12-31T01:47:01.033Z,128.50
2018-12-31T01:48:00.975Z,120.60
2018-12-31T01:49:00.866Z,123.50
2018-12-31T01:50:00.789Z,123.50
2018-12-31T01:51:00.714Z,115.60
2018-12-31T01:52:00.645Z,113.30
2018-12-31T01:53:00.575Z,107.40
2018-12-31T01:54:00.489Z,115.10
2018-12-31T01:55:00.413Z,103.50
2018-12-31T01:56:00.330Z,100.60
2018-12-31T01:57:00.291Z,96.00
2018-12-31T01:58:00.181Z,98.60
2018-12-31T01:59:00.098Z,94.30
2018-12-31T02:00:00.017Z,91.70
2018-12-31T02:00:59.954Z,84.00
2018-12-31T02:01:59.871Z,84.10
2018-12-31T02:02:59.828Z,81.60
2018-12-31T02:03:59.704Z,83.80
2018-12-31T02:04:59.624Z,81.60
2018-12-31T02:05:59.550Z,77.10
2018-12-31T02:06:59.476Z,80.10
2018-12-31T02:07:59.406Z,76.20
2018-12-31T02:08:59.321Z,67.90
2018-12-31T02:09:59.238Z,66.00
2018-12-31T02:10:59.165Z,58.80
2018-12-31T02:11:59.092Z,54.90
2018-12-31T02:12:59.009Z,55.80
2018-12-31T02:13:58.931Z,51.80
2018-12-31T02:14:58.853Z,49.00
2018-12-31T02:15:58.776Z,53.20
2018-12-31T02:16:58.700Z,48.30
2018-12-31T02:17:58.612Z,40.80
2018-12-31T02:18:58.544Z,41.60
2018-12-31T02:19:58.462Z,44.70
2018-12-31T02:20:58.391Z,41.50
2018-12-31T02:21:58.315Z,42.50
2018-12-31T02:22:58.233Z,44.10
2018-12-31T02:23:58.161Z,46.10
2018-12-31T02:24:58.082Z,44.90
2018-12-31T02:25:57.993Z,47.10
2018-12-31T02:26:57.924Z,46.80
2018-12-31T02:27:57.857Z,44.80
2018-12-31T02:28:57.757Z,44.00
2018-12-31T02:29:57.689Z,43.30
2018-12-31T02:30:57.614Z,42.70
2018-12-31T02:31:57.543Z,44.60
2018-12-31T02:32:57.454Z,45.10
2018-12-31T02:33:57.374Z,45.60
2018-12-31T02:34:57.292Z,44.40
2018-12-31T02:35:57.220Z,45.20
2018-12-31T02:36:57.146Z,42.20
2018-12-31T02:37:57.067Z,44.40
2018-12-31T02:38:56.988Z,47.60
2018-12-31T02:39:56.913Z,45.20
2018-12-31T02:40:56.832Z,45.20
2018-12-31T02:41:56.781Z,47.20
2018-12-31T02:42:56.677Z,50.50
2018-12-31T02:43:56.591Z,55.60
2018-12-31T02:44:56.528Z,56.20
2018-12-31T02:45:56.440Z,54.00
2018-12-31T02:46:56.362Z,54.10
2018-12-31T02:47:56.287Z,58.60
2018-12-31T02:48:56.209Z,59.20
2018-12-31T02:49:56.129Z,60.10
2018-12-31T02:50:56.051Z,61.50
2018-12-31T02:51:55.969Z,59.50
2018-12-31T02:52:55.890Z,74.30
2018-12-31T02:53:55.812Z,80.50
2018-12-31T02:54:55.738Z,90.00
2018-12-31T02:55:55.657Z,95.30
2018-12-31T02:56:55.584Z,103.40
2018-12-31T02:57:55.511Z,104.80
2018-12-31T02:58:55.433Z,146.00
2018-12-31T02:59:55.348Z,132.00
2018-12-31T03:00:55.272Z,140.60
2018-12-31T03:01:55.196Z,131.80
2018-12-31T03:02:55.138Z,136.90
2018-12-31T03:03:55.031Z,128.10
2018-12-31T03:04:54.964Z,109.70
2018-12-31T03:05:54.877Z,118.90
2018-12-31T03:06:54.799Z,116.50
2018-12-31T03:07:54.720Z,120.60
2018-12-31T03:08:54.640Z,115.20
2018-12-31T03:09:54.558Z,109.60
2018-12-31T03:10:54.473Z,108.30
2018-12-31T03:11:54.413Z,105.80
2018-12-31T03:12:54.330Z,105.80
2018-12-31T03:13:54.249Z,106.00
2018-12-31T03:14:54.202Z,103.60
2018-12-31T03:15:54.092Z,103.10
2018-12-31T03:16:54.017Z,99.60
2018-12-31T03:17:53.934Z,97.70
2018-12-31T03:18:53.860Z,105.80
2018-12-31T03:19:53.767Z,110.40
2018-12-31T03:20:53.737Z,96.90
2018-12-31T03:21:53.616Z,108.90
2018-12-31T03:22:53.534Z,105.10
2018-12-31T03:23:53.472Z,108.40
2018-12-31T03:24:53.383Z,101.20
2018-12-31T03:25:53.306Z,95.80
2018-12-31T03:26:53.228Z,90.80
2018-12-31T03:27:53.201Z,88.60
2018-12-31T03:28:53.066Z,93.30
2018-12-31T03:29:52.996Z,93.20
2018-12-31T03:30:52.912Z,96.10
2018-12-31T03:31:52.825Z,95.80
2018-12-31T03:32:52.749Z,89.90
2018-12-31T03:33:52.667Z,81.60
2018-12-31T03:34:52.593Z,83.20
2018-12-31T03:35:52.519Z,81.90
2018-12-31T03:36:52.438Z,79.40
2018-12-31T03:37:52.367Z,75.90
2018-12-31T03:38:52.282Z,80.80
2018-12-31T03:39:52.207Z,82.70
2018-12-31T03:40:52.123Z,89.70
2018-12-31T03:41:52.047Z,85.90
2018-12-31T03:42:51.967Z,83.30
2018-12-31T03:43:51.889Z,75.20
2018-12-31T03:44:51.814Z,78.00
2018-12-31T03:45:51.775Z,76.20
2018-12-31T03:46:51.651Z,76.20
2018-12-31T03:47:51.574Z,77.00
2018-12-31T03:48:51.537Z,77.30
2018-12-31T03:49:51.422Z,79.70
2018-12-31T03:50:51.347Z,79.40
2018-12-31T03:51:51.254Z,80.80
2018-12-31T03:52:51.181Z,86.50
2018-12-31T03:53:51.106Z,89.40
2018-12-31T03:54:51.021Z,85.80
2018-12-31T03:55:50.956Z,76.80
2018-12-31T03:56:50.878Z,84.90
2018-12-31T03:57:50.787Z,56.50
2018-12-31T03:58:50.712Z,59.80
2018-12-31T03:59:50.627Z,59.40
2018-12-31T04:00:50.553Z,57.00
2018-12-31T04:01:50.509Z,54.50
2018-12-31T04:02:50.403Z,51.00
2018-12-31T04:03:50.321Z,50.00
2018-12-31T04:04:50.241Z,46.80
2018-12-31T04:05:50.172Z,44.70
2018-12-31T04:06:50.081Z,39.60
2018-12-31T04:07:53.297Z,41.20
2018-12-31T04:08:49.932Z,38.70
2018-12-31T04:09:49.842Z,42.70
2018-12-31T04:10:49.776Z,44.80
2018-12-31T04:11:49.693Z,40.80
2018-12-31T04:12:49.618Z,38.90
2018-12-31T04:13:49.533Z,39.60
2018-12-31T04:14:49.482Z,50.20
2018-12-31T04:15:49.373Z,66.90
2018-12-31T04:16:49.295Z,68.20
2018-12-31T04:17:49.218Z,50.20
2018-12-31T04:18:49.137Z,63.80
2018-12-31T04:19:49.063Z,53.10
2018-12-31T04:20:48.998Z,56.50
2018-12-31T04:21:48.904Z,54.00
2018-12-31T04:22:48.830Z,52.30
2018-12-31T04:23:48.749Z,69.90
2018-12-31T04:24:48.672Z,64.70
2018-12-31T04:25:48.591Z,55.60
2018-12-31T04:26:48.520Z,49.40
2018-12-31T04:27:48.437Z,49.40
2018-12-31T04:28:48.356Z,54.70
2018-12-31T04:29:48.275Z,47.30
2018-12-31T04:30:48.201Z,45.70
2018-12-31T04:31:48.119Z,53.90
2018-12-31T04:32:48.034Z,61.70
2018-12-31T04:33:47.968Z,61.20
2018-12-31T04:34:47.876Z,50.80
2018-12-31T04:35:47.812Z,49.00
2018-12-31T04:36:47.724Z,55.40
2018-12-31T04:37:47.658Z,53.80
2018-12-31T04:38:47.564Z,46.40
2018-12-31T04:39:47.493Z,47.60
2018-12-31T04:40:47.402Z,46.40
2018-12-31T04:41:47.320Z,48.10
2018-12-31T04:42:47.257Z,47.60
2018-12-31T04:43:47.169Z,45.30
2018-12-31T04:44:47.091Z,48.00
2018-12-31T04:45:47.010Z,50.80
2018-12-31T04:46:46.926Z,55.00
2018-12-31T04:47:46.858Z,48.10
2018-12-31T04:48:46.770Z,47.30
2018-12-31T04:49:46.686Z,43.50
2018-12-31T04:50:46.612Z,44.10
2018-12-31T04:51:46.533Z,37.70
2018-12-31T04:52:46.445Z,37.20
2018-12-31T04:53:46.365Z,39.00
2018-12-31T04:54:46.294Z,34.50
2018-12-31T04:55:46.215Z,34.30
2018-12-31T04:56:46.141Z,35.30
2018-12-31T04:57:46.055Z,35.70
2018-12-31T04:58:45.983Z,32.10
2018-12-31T04:59:45.891Z,35.10
2018-12-31T05:00:45.815Z,36.50
2018-12-31T05:01:45.748Z,33.50
2018-12-31T05:02:45.670Z,32.70
2018-12-31T05:03:45.584Z,38.30
2018-12-31T05:04:45.527Z,38.90
2018-12-31T05:05:45.418Z,35.90
2018-12-31T05:06:45.333Z,32.10
2018-12-31T05:07:45.263Z,34.80
2018-12-31T05:08:45.184Z,31.10
2018-12-31T05:09:45.102Z,31.60
2018-12-31T05:10:45.028Z,33.50
2018-12-31T05:11:44.954Z,29.60
2018-12-31T05:12:44.883Z,31.70
2018-12-31T05:13:44.790Z,35.40
2018-12-31T05:14:44.706Z,35.10
2018-12-31T05:15:44.629Z,34.80
2018-12-31T05:16:44.560Z,31.00
2018-12-31T05:17:44.482Z,33.60
2018-12-31T05:18:44.403Z,35.40
2018-12-31T05:19:44.308Z,34.20
2018-12-31T05:20:44.230Z,32.60
2018-12-31T05:21:44.155Z,31.80
2018-12-31T05:22:44.071Z,28.80
2018-12-31T05:23:43.995Z,24.20
2018-12-31T05:24:43.911Z,26.90
2018-12-31T05:25:43.847Z,26.30
2018-12-31T05:26:43.758Z,27.00
2018-12-31T05:27:43.673Z,28.60
2018-12-31T05:28:43.591Z,28.50
2018-12-31T05:29:43.511Z,29.80
2018-12-31T05:30:43.446Z,30.40
2018-12-31T05:31:43.364Z,30.40
2018-12-31T05:32:43.289Z,30.50
2018-12-31T05:33:43.203Z,29.30
2018-12-31T05:34:43.123Z,30.60
2018-12-31T05:35:43.044Z,30.30
2018-12-31T05:36:42.972Z,27.30
2018-12-31T05:37:42.887Z,31.70
2018-12-31T05:38:42.857Z,31.90
2018-12-31T05:39:42.732Z,30.20
2018-12-31T05:40:42.654Z,29.20
2018-12-31T05:41:42.567Z,27.70
2018-12-31T05:42:42.505Z,29.80
2018-12-31T05:43:42.413Z,28.60
2018-12-31T05:44:42.361Z,28.40
2018-12-31T05:45:42.264Z,30.80
2018-12-31T05:46:42.177Z,32.30
2018-12-31T05:47:42.090Z,29.90
2018-12-31T05:48:42.023Z,30.90
2018-12-31T05:49:41.935Z,31.20
2018-12-31T05:50:41.883Z,31.80
2018-12-31T05:51:41.784Z,32.00
2018-12-31T05:52:41.704Z,31.70
2018-12-31T05:53:41.636Z,28.60
2018-12-31T05:54:41.543Z,30.40
2018-12-31T05:55:41.464Z,30.30
2018-12-31T05:56:41.381Z,26.30
2018-12-31T05:57:41.319Z,28.10
2018-12-31T05:58:41.222Z,27.70
2018-12-31T05:59:41.143Z,32.70
2018-12-31T06:00:42.142Z,29.90
2018-12-31T06:01:40.992Z,31.60
2018-12-31T06:02:40.915Z,34.00
2018-12-31T06:03:40.830Z,32.70
2018-12-31T06:04:40.768Z,31.10
2018-12-31T06:05:40.667Z,29.90
2018-12-31T06:06:40.592Z,31.70
2018-12-31T06:07:40.512Z,27.10
2018-12-31T06:08:40.436Z,32.30
2018-12-31T06:09:40.353Z,29.30
2018-12-31T06:10:40.269Z,31.20
2018-12-31T06:11:40.197Z,29.30
2018-12-31T06:12:40.115Z,31.80
2018-12-31T06:13:40.025Z,33.90
2018-12-31T06:14:39.951Z,30.80
2018-12-31T06:15:39.873Z,37.50
2018-12-31T06:16:39.787Z,32.80
2018-12-31T06:17:39.703Z,28.00
2018-12-31T06:18:39.627Z,30.90
2018-12-31T06:19:39.549Z,27.20
2018-12-31T06:20:39.469Z,35.20
2018-12-31T06:21:39.388Z,28.80
2018-12-31T06:22:39.305Z,34.10
2018-12-31T06:23:39.227Z,32.80
2018-12-31T06:24:39.155Z,24.90
2018-12-31T06:25:39.067Z,24.40
2018-12-31T06:26:38.993Z,25.00
2018-12-31T06:27:38.902Z,26.00
2018-12-31T06:28:38.835Z,28.80
2018-12-31T06:29:38.749Z,26.10
2018-12-31T06:30:38.675Z,25.40
2018-12-31T06:31:38.614Z,23.10
2018-12-31T06:32:38.511Z,21.50
2018-12-31T06:33:38.433Z,25.00
2018-12-31T06:34:38.352Z,23.90
2018-12-31T06:35:38.267Z,23.30
2018-12-31T06:36:38.189Z,23.70
2018-12-31T06:37:38.108Z,19.50
2018-12-31T06:38:38.027Z,19.60
2018-12-31T06:39:37.954Z,21.10
2018-12-31T06:40:37.869Z,19.10
2018-12-31T06:41:37.797Z,17.60
2018-12-31T06:42:37.727Z,18.20
2018-12-31T06:43:37.631Z,28.10
2018-12-31T06:44:37.571Z,28.30
2018-12-31T06:45:37.474Z,28.70
2018-12-31T06:46:37.396Z,22.90
2018-12-31T06:47:37.309Z,19.90
2018-12-31T06:48:37.226Z,25.30
2018-12-31T06:49:37.155Z,20.90
2018-12-31T06:50:37.087Z,20.70
2018-12-31T06:51:36.987Z,20.60
2018-12-31T06:52:36.913Z,21.50
2018-12-31T06:53:36.843Z,20.40
2018-12-31T06:54:36.749Z,23.20
2018-12-31T06:55:36.676Z,19.10
2018-12-31T06:56:36.606Z,18.20
2018-12-31T06:57:36.515Z,18.70
2018-12-31T06:58:36.440Z,23.90
2018-12-31T06:59:36.355Z,21.90
2018-12-31T07:00:36.282Z,24.50
2018-12-31T07:01:36.198Z,26.00
2018-12-31T07:02:36.117Z,23.40
2018-12-31T07:03:36.034Z,20.40
2018-12-31T07:04:35.966Z,23.20
2018-12-31T07:05:35.879Z,21.30
2018-12-31T07:06:35.835Z,25.10
2018-12-31T07:07:35.724Z,30.90
2018-12-31T07:08:35.642Z,23.90
2018-12-31T07:09:35.559Z,20.70
2018-12-31T07:10:35.484Z,22.10
2018-12-31T07:11:35.399Z,27.40
2018-12-31T07:12:35.326Z,26.00
2018-12-31T07:13:35.271Z,24.80
2018-12-31T07:14:35.163Z,28.50
2018-12-31T07:15:35.077Z,27.30
2018-12-31T07:16:35.003Z,26.00
2018-12-31T07:17:34.960Z,27.40
2018-12-31T07:18:34.851Z,27.90
2018-12-31T07:19:34.774Z,26.90
2018-12-31T07:20:34.685Z,27.50
2018-12-31T07:21:34.601Z,27.20
2018-12-31T07:22:34.531Z,25.70
2018-12-31T07:23:34.450Z,26.30
2018-12-31T07:24:34.372Z,24.40
2018-12-31T07:25:34.294Z,21.90
2018-12-31T07:26:34.211Z,22.60
2018-12-31T07:27:34.142Z,22.00
2018-12-31T07:28:34.055Z,23.70
2018-12-31T07:29:33.973Z,22.80
2018-12-31T07:30:33.901Z,23.00
2018-12-31T07:31:33.812Z,22.10
2018-12-31T07:32:33.744Z,21.20
2018-12-31T07:33:33.668Z,23.10
2018-12-31T07:34:33.579Z,23.80
2018-12-31T07:35:33.499Z,28.40
2018-12-31T07:36:33.422Z,27.90
2018-12-31T07:37:33.340Z,28.20
2018-12-31T07:38:33.268Z,32.30
2018-12-31T07:39:33.183Z,43.60
2018-12-31T07:40:33.109Z,33.80
2018-12-31T07:41:33.023Z,33.50
2018-12-31T07:42:32.946Z,32.60
2018-12-31T07:43:32.872Z,29.70
2018-12-31T07:44:32.806Z,31.70
2018-12-31T07:45:32.706Z,29.50
2018-12-31T07:46:32.630Z,31.60
2018-12-31T07:47:32.553Z,36.90
2018-12-31T07:48:32.472Z,32.30
2018-12-31T07:49:32.393Z,32.20
2018-12-31T07:50:32.315Z,31.20
2018-12-31T07:51:32.234Z,31.90
2018-12-31T07:52:32.162Z,31.40
2018-12-31T07:53:32.069Z,36.70
2018-12-31T07:54:31.990Z,32.60
2018-12-31T07:55:31.919Z,37.90
2018-12-31T07:56:31.837Z,38.10
2018-12-31T07:57:31.773Z,43.10
2018-12-31T07:58:31.678Z,42.90
2018-12-31T07:59:31.604Z,47.10
2018-12-31T08:00:31.526Z,41.40
2018-12-31T08:01:31.437Z,40.60
2018-12-31T08:02:31.375Z,38.90
2018-12-31T08:03:31.274Z,42.10
2018-12-31T08:04:31.189Z,43.20
2018-12-31T08:05:31.104Z,41.00
2018-12-31T08:06:31.053Z,48.30
2018-12-31T08:07:30.956Z,48.70
2018-12-31T08:08:30.876Z,44.10
2018-12-31T08:09:30.798Z,41.60
2018-12-31T08:10:30.713Z,41.10
2018-12-31T08:11:30.641Z,44.90
2018-12-31T08:12:30.550Z,46.80
2018-12-31T08:13:30.474Z,40.80
2018-12-31T08:14:30.401Z,38.50
2018-12-31T08:15:30.313Z,38.70
2018-12-31T08:16:30.236Z,42.60
2018-12-31T08:17:30.155Z,43.00
2018-12-31T08:18:30.067Z,37.70
2018-12-31T08:19:29.998Z,40.50
2018-12-31T08:20:29.936Z,38.20
2018-12-31T08:21:29.837Z,38.70
2018-12-31T08:22:29.764Z,36.60
2018-12-31T08:23:29.673Z,36.60
2018-12-31T08:24:29.597Z,35.90
2018-12-31T08:25:29.522Z,41.50
2018-12-31T08:26:29.436Z,40.30
2018-12-31T08:27:29.370Z,42.80
2018-12-31T08:28:29.271Z,42.10
2018-12-31T08:29:29.191Z,46.00
2018-12-31T08:30:29.113Z,37.20
2018-12-31T08:31:29.037Z,57.20
2018-12-31T08:32:28.964Z,39.40
2018-12-31T08:33:28.877Z,40.50
2018-12-31T08:34:28.787Z,40.80
2018-12-31T08:35:28.728Z,67.90
2018-12-31T08:36:28.639Z,35.80
2018-12-31T08:37:28.570Z,37.20
2018-12-31T08:38:28.474Z,32.00
2018-12-31T08:39:28.408Z,29.90
2018-12-31T08:40:28.327Z,29.40
2018-12-31T08:41:28.246Z,26.60
2018-12-31T08:42:28.159Z,23.30
2018-12-31T08:43:28.075Z,21.50
2018-12-31T08:44:28.019Z,22.30
2018-12-31T08:45:27.918Z,22.10
2018-12-31T08:46:27.836Z,22.40
2018-12-31T08:47:27.773Z,20.70
2018-12-31T08:48:27.675Z,23.70
2018-12-31T08:49:27.598Z,26.70
2018-12-31T08:50:27.515Z,25.40
2018-12-31T08:51:27.444Z,40.10
2018-12-31T08:52:27.354Z,24.90
2018-12-31T08:53:27.280Z,23.80
2018-12-31T08:54:27.207Z,32.30
2018-12-31T08:55:27.122Z,28.00
2018-12-31T08:56:27.040Z,28.60
2018-12-31T08:57:26.962Z,25.70
2018-12-31T08:58:26.880Z,23.20
2018-12-31T08:59:26.798Z,27.70
2018-12-31T09:00:26.723Z,27.10
2018-12-31T09:01:26.722Z,28.20
2018-12-31T09:02:26.562Z,24.50
2018-12-31T09:03:26.482Z,25.30
2018-12-31T09:04:26.402Z,23.20
2018-12-31T09:05:26.325Z,21.60
2018-12-31T09:06:26.240Z,24.90
2018-12-31T09:07:26.167Z,27.70
2018-12-31T09:08:26.082Z,29.40
2018-12-31T09:09:26.006Z,25.90
2018-12-31T09:10:25.923Z,23.50
2018-12-31T09:11:25.842Z,24.80
2018-12-31T09:12:25.755Z,22.20
2018-12-31T09:13:25.703Z,20.40
2018-12-31T09:14:25.612Z,21.00
2018-12-31T09:15:25.524Z,20.90
2018-12-31T09:16:25.448Z,21.00
2018-12-31T09:17:25.374Z,20.10
2018-12-31T09:18:25.287Z,22.10
2018-12-31T09:19:25.237Z,20.30
2018-12-31T09:20:25.126Z,18.80
2018-12-31T09:21:25.093Z,18.70
2018-12-31T09:22:24.967Z,18.70
2018-12-31T09:23:24.890Z,20.70
2018-12-31T09:24:24.812Z,20.40
2018-12-31T09:25:24.779Z,20.20
2018-12-31T09:26:24.654Z,20.50
2018-12-31T09:27:24.572Z,22.90
2018-12-31T09:28:24.496Z,22.30
2018-12-31T09:29:24.427Z,25.40
2018-12-31T09:30:24.340Z,26.30
2018-12-31T09:31:24.261Z,29.30
2018-12-31T09:32:24.183Z,31.10
2018-12-31T09:33:24.101Z,32.30
2018-12-31T09:34:24.023Z,31.90
2018-12-31T09:35:23.954Z,32.10
2018-12-31T09:36:23.864Z,29.10
2018-12-31T09:37:23.787Z,33.30
2018-12-31T09:38:23.709Z,31.50
2018-12-31T09:39:23.631Z,31.80
2018-12-31T09:40:23.574Z,33.00
2018-12-31T09:41:23.477Z,32.70
2018-12-31T09:42:23.407Z,31.60
2018-12-31T09:43:23.318Z,29.30
2018-12-31T09:44:23.242Z,27.80
2018-12-31T09:45:23.169Z,26.90
2018-12-31T09:46:23.081Z,26.80
2018-12-31T09:47:23.010Z,24.70
2018-12-31T09:48:22.925Z,23.00
2018-12-31T09:49:22.840Z,23.40
2018-12-31T09:50:22.773Z,23.60
2018-12-31T09:51:22.704Z,25.40
2018-12-31T09:52:22.613Z,25.70
2018-12-31T09:53:22.537Z,28.20
2018-12-31T09:54:22.441Z,23.80
2018-12-31T09:55:22.371Z,24.90
2018-12-31T09:56:22.294Z,24.20
2018-12-31T09:57:22.219Z,22.50
2018-12-31T09:58:22.141Z,20.70
2018-12-31T09:59:22.075Z,21.30
2018-12-31T10:00:21.996Z,22.10
2018-12-31T10:01:21.906Z,24.30
2018-12-31T10:02:21.834Z,24.30
2018-12-31T10:03:21.752Z,24.10
2018-12-31T10:04:21.681Z,23.70
2018-12-31T10:05:21.590Z,23.90
2018-12-31T10:06:21.516Z,26.60
2018-12-31T10:07:21.425Z,21.70
2018-12-31T10:08:21.353Z,21.40
2018-12-31T10:09:21.275Z,23.40
2018-12-31T10:10:21.192Z,25.00
2018-12-31T10:11:21.128Z,24.70
2018-12-31T10:12:21.071Z,26.70
2018-12-31T10:13:20.949Z,28.00
2018-12-31T10:14:20.890Z,25.90
2018-12-31T10:15:20.802Z,27.60
2018-12-31T10:16:20.728Z,29.70
2018-12-31T10:17:20.643Z,29.70
2018-12-31T10:18:20.561Z,29.60
2018-12-31T10:19:20.482Z,27.40
2018-12-31T10:20:20.412Z,29.60
2018-12-31T10:21:20.328Z,25.40
2018-12-31T10:22:20.244Z,26.00
2018-12-31T10:23:20.166Z,30.50
2018-12-31T10:24:20.107Z,31.10
2018-12-31T10:25:20.012Z,32.80
2018-12-31T10:26:19.935Z,29.60
2018-12-31T10:27:19.870Z,25.80
2018-12-31T10:28:19.770Z,26.20
2018-12-31T10:29:20.806Z,25.40
2018-12-31T10:30:19.631Z,27.80
2018-12-31T10:31:19.536Z,26.10
2018-12-31T10:32:19.462Z,29.90
2018-12-31T10:33:19.381Z,32.50
2018-12-31T10:34:19.300Z,32.70
2018-12-31T10:35:19.206Z,35.20
2018-12-31T10:36:19.139Z,33.20
2018-12-31T10:37:19.052Z,30.80
2018-12-31T10:38:18.998Z,28.90
2018-12-31T10:39:18.898Z,27.60
2018-12-31T10:40:18.817Z,30.00
2018-12-31T10:41:18.740Z,30.10
2018-12-31T10:42:18.676Z,33.80
2018-12-31T10:43:18.589Z,34.80
2018-12-31T10:44:18.502Z,34.70
2018-12-31T10:45:18.422Z,34.60
2018-12-31T10:46:18.336Z,37.60
2018-12-31T10:47:18.257Z,33.80
2018-12-31T10:48:18.182Z,36.00
2018-12-31T10:49:18.114Z,35.20
2018-12-31T10:50:18.024Z,32.70
2018-12-31T10:51:17.943Z,31.30
2018-12-31T10:52:17.873Z,32.10
2018-12-31T10:53:17.793Z,36.60
2018-12-31T10:54:17.712Z,32.70
2018-12-31T10:55:17.654Z,33.00
2018-12-31T10:56:17.554Z,30.50
2018-12-31T10:57:17.920Z,30.90
2018-12-31T10:58:17.395Z,32.10
2018-12-31T10:59:17.332Z,30.90
2018-12-31T11:00:17.237Z,28.20
2018-12-31T11:01:17.164Z,28.00
2018-12-31T11:02:17.072Z,29.00
2018-12-31T11:03:17.004Z,30.60
2018-12-31T11:04:16.926Z,29.40
2018-12-31T11:05:16.846Z,32.20
2018-12-31T11:06:16.760Z,29.90
2018-12-31T11:07:16.693Z,29.30
2018-12-31T11:08:16.608Z,29.00
2018-12-31T11:09:16.536Z,30.00
2018-12-31T11:10:16.457Z,28.50
2018-12-31T11:11:16.406Z,28.80
2018-12-31T11:12:16.298Z,30.40
2018-12-31T11:13:16.222Z,29.40
2018-12-31T11:14:16.148Z,32.40
2018-12-31T11:15:16.067Z,31.00
2018-12-31T11:16:16.065Z,30.50
2018-12-31T11:17:15.914Z,30.10
2018-12-31T11:18:15.836Z,31.40
2018-12-31T11:19:15.772Z,30.80
2018-12-31T11:20:15.682Z,31.80
2018-12-31T11:21:15.600Z,31.00
2018-12-31T11:22:15.518Z,31.70
2018-12-31T11:23:15.440Z,30.40
2018-12-31T11:24:15.372Z,30.90
2018-12-31T11:25:15.288Z,31.20
2018-12-31T11:26:15.219Z,32.80
2018-12-31T11:27:15.188Z,33.40
2018-12-31T11:28:15.053Z,35.40
2018-12-31T11:29:14.972Z,33.40
2018-12-31T11:30:14.900Z,35.60
2018-12-31T11:31:14.851Z,35.70
2018-12-31T11:32:14.746Z,35.90
2018-12-31T11:33:14.669Z,35.80
2018-12-31T11:34:14.586Z,35.80
2018-12-31T11:35:14.514Z,36.70
2018-12-31T11:36:14.432Z,37.70
2018-12-31T11:37:14.359Z,38.60
2018-12-31T11:38:14.281Z,38.90
2018-12-31T11:39:14.202Z,36.10
2018-12-31T11:40:14.122Z,35.60
2018-12-31T11:41:14.046Z,34.50
2018-12-31T11:42:13.964Z,36.70
2018-12-31T11:43:13.890Z,39.40
2018-12-31T11:44:13.826Z,38.60
2018-12-31T11:45:13.740Z,37.20
2018-12-31T11:46:13.657Z,35.80
2018-12-31T11:47:13.583Z,35.00
2018-12-31T11:48:13.515Z,34.40
2018-12-31T11:49:13.441Z,33.50
2018-12-31T11:50:13.353Z,33.90
2018-12-31T11:51:13.274Z,34.40
2018-12-31T11:52:13.202Z,35.00
2018-12-31T11:53:13.129Z,35.30
2018-12-31T11:54:13.049Z,36.40
2018-12-31T11:55:12.965Z,36.60
2018-12-31T11:56:12.897Z,35.40
2018-12-31T11:57:12.812Z,36.10
2018-12-31T11:58:12.736Z,35.90
2018-12-31T11:59:12.662Z,34.10
2018-12-31T12:00:12.586Z,37.60
2018-12-31T12:01:12.505Z,39.00
2018-12-31T12:02:12.425Z,36.90
2018-12-31T12:03:12.357Z,34.60
2018-12-31T12:04:12.268Z,36.00
2018-12-31T12:05:12.193Z,36.30
2018-12-31T12:06:12.120Z,36.50
2018-12-31T12:07:12.042Z,36.30
2018-12-31T12:08:11.970Z,36.30
2018-12-31T12:09:11.890Z,34.30
2018-12-31T12:10:11.816Z,34.80
2018-12-31T12:11:11.739Z,35.60
2018-12-31T12:12:11.652Z,36.10
2018-12-31T12:13:11.585Z,36.70
2018-12-31T12:14:11.497Z,34.80
2018-12-31T12:15:11.424Z,37.90
2018-12-31T12:16:11.339Z,37.60
2018-12-31T12:17:11.261Z,38.80
2018-12-31T12:18:11.197Z,41.40
2018-12-31T12:19:11.113Z,39.10
2018-12-31T12:20:11.042Z,41.60
2018-12-31T12:21:10.963Z,41.50
2018-12-31T12:22:10.882Z,41.40
2018-12-31T12:23:10.807Z,47.00
2018-12-31T12:24:10.768Z,44.30
2018-12-31T12:25:10.648Z,42.70
2018-12-31T12:26:10.573Z,41.80
2018-12-31T12:27:10.497Z,42.40
2018-12-31T12:28:10.418Z,43.80
2018-12-31T12:29:10.340Z,44.80
2018-12-31T12:30:10.274Z,43.70
2018-12-31T12:31:10.176Z,44.80
2018-12-31T12:32:10.107Z,46.50
2018-12-31T12:33:10.039Z,45.90
2018-12-31T12:34:09.947Z,46.00
2018-12-31T12:35:09.863Z,44.80
2018-12-31T12:36:09.803Z,46.70
2018-12-31T12:37:09.725Z,46.90
2018-12-31T12:38:09.642Z,48.10
2018-12-31T12:39:09.562Z,46.50
2018-12-31T12:40:09.486Z,43.30
2018-12-31T12:41:09.407Z,45.70
2018-12-31T12:42:09.327Z,45.80
2018-12-31T12:43:09.295Z,45.00
2018-12-31T12:44:09.186Z,48.50
2018-12-31T12:45:09.101Z,48.30
2018-12-31T12:46:09.037Z,50.40
2018-12-31T12:47:08.941Z,50.60
2018-12-31T12:48:08.866Z,51.10
2018-12-31T12:49:08.786Z,51.60